Hovedside
METAR-TAF:

METAR-TAF

Lufthavner :

Adıyaman, Tyrkia

breddegrad: 37-43-54N, lengdegrad: 38-28-08E, høyde over havet: 675 m

Gjeldene værobservasjon

Denne rapporten ble laget for 27 minutter siden, klokken 04:50 UTC
Vind 3 kt fra Øst, skiftende mellom Øst-nordøst og Øst-sørøst
Temperatur 20°C
Luftfuktighet 53%
Trykk 1014 hPa
Sikt 10 km eller mer
ingen skyer under 1500 m og ingen bygeskyer

METAR: LTCP 190450Z 09003KT 060V120 CAVOK 20/10 Q1014

Tid: 08:17 (05:17 UTC)

Varsel

Denne rapporten ble laget for 3 timer og 37 minutter siden, klokken 01:40 UTC
Varsel gyldig fra 19. klokken 03 UTC til 19. klokken 12 UTC
Vind 2 kt fra skiftende retning
Sikt 10 km eller mer
ingen skyer under 1500 m og ingen bygeskyer
Blir
fra 19. klokken 05 UTC til 19. klokken 07 UTC
Spredte skyer i en høyde av 4000 ft
Midlertidig
fra 19. klokken 08 UTC til 19. klokken 12 UTC
Vind 15 kt fra Sør-sørvest med vindkast opp mot 28 kt

TAF: LTCP 190140Z 1903/1912 VRB02KT CAVOK BECMG 1905/1907 SCT040 TEMPO 1908/1912 21015G28KT

Værobservasjoner og værvarsel for over 4000 flyplasser (METAR- og TAF-rapporter).

Tilgjengelige stasjoner er representert av de røde og gule prikkene på kartet.

Hold musepekeren over prikken for å se navnet på stasjonen.

Klikk så for å se værobservasjoner og -varsler.

For å forandre kartet kan du klikke på den grønne knappen med svart kryss for å zoome inn, på den grønne knappen med strek for å zoome ut, eller på de grønne pilene for å se tilstøtende kart.


METAR-TAF: